createdAt,value
2023-02-19T00:04:05.052Z,1025.02
2023-02-19T00:33:03.409Z,1025.1
2023-02-19T01:01:49.220Z,1025.02
2023-02-19T01:30:46.809Z,1024.9
2023-02-19T01:59:51.828Z,1024.99
2023-02-19T02:28:55.745Z,1024.99
2023-02-19T02:57:50.661Z,1024.64
2023-02-19T03:26:58.897Z,1024.7
2023-02-19T03:55:54.309Z,1024.73
2023-02-19T04:25:08.602Z,1025.08
2023-02-19T04:54:04.847Z,1025.55
2023-02-19T05:23:14.680Z,1025.91
2023-02-19T05:52:15.661Z,1026.19
2023-02-19T06:21:17.620Z,1026.4
2023-02-19T06:50:23.721Z,1026.42
2023-02-19T07:19:22.420Z,1026.94
2023-02-19T07:48:26.657Z,1027.08
2023-02-19T08:17:30.794Z,1027.17
2023-02-19T08:46:39.069Z,1027.5
2023-02-19T09:15:51.281Z,1027.8
2023-02-19T09:44:50.424Z,1027.85
2023-02-19T10:14:07.134Z,1028.14
2023-02-19T10:43:19.199Z,1028.52
2023-02-19T11:12:25.985Z,1028.49
2023-02-19T11:41:25.819Z,1028.42
2023-02-19T12:10:30.121Z,1028.48
2023-02-19T12:39:31.811Z,1028.23
2023-02-19T13:09:06.202Z,1027.96
2023-02-19T13:37:07.600Z,1028.05
2023-02-19T14:06:04.758Z,1028.11
2023-02-19T14:35:07.507Z,1028.04
2023-02-19T15:04:17.489Z,1027.99
2023-02-19T15:33:20.296Z,1028.23
2023-02-19T16:02:28.185Z,1028.69
2023-02-19T16:31:07.296Z,1028.92
2023-02-19T17:00:07.490Z,1028.77
2023-02-19T17:29:09.951Z,1028.97
2023-02-19T17:58:23.308Z,1029.13
2023-02-19T18:27:22.040Z,1029.36
2023-02-19T18:55:47.882Z,1029.63
2023-02-19T19:24:07.970Z,1030.03
2023-02-19T19:52:23.592Z,1030.26
2023-02-19T20:20:53.720Z,1030.38
2023-02-19T20:49:16.435Z,1030.26
2023-02-19T21:17:46.739Z,1030.45
2023-02-19T21:45:59.550Z,1030.48
2023-02-19T22:14:15.737Z,1030.18
2023-02-19T22:42:36.578Z,1030.44
2023-02-19T23:10:57.416Z,1030.73
2023-02-19T23:39:13.016Z,1030.77
